Time;durP1;ratioP1;P1;durP2;ratioP2;P2;SDS_P1;SDS_P2;PMS_P1;PMS_P2;Temp;Humidity;BMP_temperature;BMP_pressure;BME280_temperature;BME280_humidity;BME280_pressure;Samples;Min_cycle;Max_cycle;Signal;HPM_P1;HPM_P2
2022/06/02 00:01:33;;;;;;;3.85;1.80;;;;;;;-147.90;100.00;59510.75;4972472;28;20046;-86
2022/06/02 00:04:07;;;;;;;4.43;1.85;;;;;;;-147.90;100.00;59510.75;4972582;28;20110;-86
2022/06/02 00:06:48;;;;;;;5.53;2.08;;;;;;;-147.90;100.00;59510.75;4971796;28;20105;-86
2022/06/02 00:09:29;;;;;;;7.18;2.00;;;;;;;-147.90;100.00;59510.75;4972161;28;20461;-86
2022/06/02 00:12:03;;;;;;;3.45;1.77;;;;;;;-147.90;100.00;59510.75;4973659;28;20062;-86
2022/06/02 00:14:37;;;;;;;4.57;2.38;;;;;;;-147.90;100.00;59510.75;4972245;28;20055;-87
2022/06/02 00:17:13;;;;;;;3.63;1.95;;;;;;;-147.90;100.00;59510.75;4972676;28;20187;-86
2022/06/02 00:19:46;;;;;;;6.05;2.20;;;;;;;-147.90;100.00;59510.75;4968416;28;20502;-86
2022/06/02 00:22:17;;;;;;;4.63;2.20;;;;;;;-147.90;100.00;59510.75;4964995;28;20047;-86
2022/06/02 00:24:54;;;;;;;3.85;1.98;;;;;;;-147.90;100.00;59510.75;4972765;28;20047;-86
2022/06/02 00:27:30;;;;;;;3.80;2.10;;;;;;;-147.90;100.00;59510.75;4972055;28;20049;-86
2022/06/02 00:30:06;;;;;;;4.05;2.08;;;;;;;-147.90;100.00;59510.75;4972852;28;20082;-86
2022/06/02 00:32:44;;;;;;;4.40;2.08;;;;;;;-147.90;100.00;59510.75;4971472;28;20101;-86
2022/06/02 00:35:21;;;;;;;3.95;2.00;;;;;;;-147.90;100.00;59510.75;4972414;28;20105;-86
2022/06/02 00:37:52;;;;;;;4.03;2.20;;;;;;;-147.90;100.00;59510.75;4971531;28;20544;-86
2022/06/02 00:40:22;;;;;;;5.07;2.30;;;;;;;-147.90;100.00;59510.75;4971991;28;20493;-86
2022/06/02 00:43:19;;;;;;;3.75;2.38;;;;;;;-147.90;100.00;59510.75;4971229;28;20054;-86
2022/06/02 00:45:50;;;;;;;3.58;2.45;;;;;;;-147.90;100.00;59510.75;4971230;28;20390;-86
2022/06/02 00:48:26;;;;;;;4.20;2.00;;;;;;;-147.90;100.00;59510.75;4970377;28;20543;-86
2022/06/02 00:51:02;;;;;;;5.40;2.33;;;;;;;-147.90;100.00;59510.75;4971715;28;20043;-86
2022/06/02 00:53:43;;;;;;;7.20;2.50;;;;;;;-147.90;100.00;59510.75;4970558;28;20046;-86
2022/06/02 00:59:32;;;;;;;3.45;2.05;;;;;;;-147.90;100.00;59510.75;4907577;29;20068;-86
2022/06/02 01:01:59;;;;;;;3.80;2.88;;;;;;;-147.90;100.00;59510.75;4958551;28;20069;-86
2022/06/02 01:04:26;;;;;;;3.88;1.83;;;;;;;-147.90;100.00;59510.75;4973625;28;20098;-86
2022/06/02 01:07:13;;;;;;;4.18;2.40;;;;;;;-147.90;100.00;59510.75;4972930;28;20039;-86
2022/06/02 01:09:59;;;;;;;5.60;2.55;;;;;;;-147.90;100.00;59510.75;4972107;28;20102;-86
2022/06/02 01:12:48;;;;;;;5.20;2.72;;;;;;;-147.90;100.00;59510.75;4972358;28;20113;-86
2022/06/02 01:15:27;;;;;;;4.43;2.08;;;;;;;-147.90;100.00;59510.75;4972682;28;20050;-85
2022/06/02 01:18:05;;;;;;;6.15;2.60;;;;;;;-147.90;100.00;59510.75;4971777;28;20552;-87
2022/06/02 01:20:43;;;;;;;5.03;2.35;;;;;;;-147.90;100.00;59510.75;4970811;28;20051;-87
2022/06/02 01:23:47;;;;;;;4.85;2.10;;;;;;;-147.90;100.00;59510.75;4971935;28;20137;-86
2022/06/02 01:26:36;;;;;;;3.95;2.15;;;;;;;-147.90;100.00;59510.75;4972500;28;20465;-87
2022/06/02 01:29:22;;;;;;;4.40;2.45;;;;;;;-147.90;100.00;59510.75;4971067;28;20054;-86
2022/06/02 01:31:58;;;;;;;3.97;2.10;;;;;;;-147.90;100.00;59510.75;4971256;28;20141;-86
2022/06/02 01:34:40;;;;;;;5.13;2.75;;;;;;;-147.90;100.00;59510.75;4971657;28;20054;-86
2022/06/02 01:37:16;;;;;;;6.70;2.70;;;;;;;-147.90;100.00;59510.75;4970870;28;20043;-87
2022/06/02 01:39:48;;;;;;;;;;;;;;;-147.90;100.00;59510.75;4972673;28;20540;-86
2022/06/02 01:42:26;;;;;;;7.75;2.85;;;;;;;-147.90;100.00;59510.75;4972453;28;20016;-86
2022/06/02 01:45:01;;;;;;;4.18;2.40;;;;;;;-147.90;100.00;59510.75;4970924;28;20138;-84
2022/06/02 01:47:34;;;;;;;3.90;2.35;;;;;;;-147.90;100.00;59510.75;4972207;28;20058;-86
2022/06/02 01:50:13;;;;;;;4.55;2.58;;;;;;;-147.90;100.00;59510.75;4972005;28;20086;-86
2022/06/02 01:52:46;;;;;;;3.38;2.20;;;;;;;-147.90;100.00;59510.75;4970967;28;20074;-86
2022/06/02 01:55:26;;;;;;;5.50;2.47;;;;;;;-147.90;100.00;59510.75;4972533;28;20046;-86
2022/06/02 01:58:04;;;;;;;4.45;2.22;;;;;;;-147.90;100.00;59510.75;4970548;28;20390;-84
2022/06/02 02:00:34;;;;;;;3.90;2.97;;;;;;;-147.90;100.00;59510.75;4972330;28;20054;-86
2022/06/02 02:03:16;;;;;;;6.88;2.70;;;;;;;-147.90;100.00;59510.75;4971909;28;20049;-86
2022/06/02 02:05:57;;;;;;;5.28;2.47;;;;;;;-147.90;100.00;59510.75;4971094;28;20125;-86
2022/06/02 02:08:37;;;;;;;4.30;2.50;;;;;;;-147.90;100.00;59510.75;4970176;28;20078;-87
2022/06/02 02:11:18;;;;;;;6.93;3.25;;;;;;;-147.90;100.00;59510.75;4971379;28;20055;-86
2022/06/02 02:14:05;;;;;;;6.80;3.00;;;;;;;-147.90;100.00;59510.75;4970752;28;20051;-86
2022/06/02 02:16:50;;;;;;;5.50;2.63;;;;;;;-147.90;100.00;59510.75;4971021;28;20145;-87
2022/06/02 02:19:25;;;;;;;5.47;2.42;;;;;;;-147.90;100.00;59510.75;4970848;28;20550;-86
2022/06/02 02:21:57;;;;;;;;;;;;;;;-147.90;100.00;59510.75;4970337;28;20108;-86
2022/06/02 02:24:36;;;;;;;3.97;2.40;;;;;;;-147.90;100.00;59510.75;4970019;28;19926;-86
2022/06/02 02:27:12;;;;;;;3.78;2.53;;;;;;;-147.90;100.00;59510.75;4970870;28;20074;-86
2022/06/02 02:29:44;;;;;;;5.45;2.78;;;;;;;-147.90;100.00;59510.75;4969696;28;20505;-87
2022/06/02 02:32:21;;;;;;;5.00;2.65;;;;;;;-147.90;100.00;59510.75;4970343;28;20047;-87
2022/06/02 02:34:58;;;;;;;3.63;2.38;;;;;;;-147.90;100.00;59510.75;4970733;28;20097;-86
2022/06/02 02:37:34;;;;;;;4.53;2.42;;;;;;;-147.90;100.00;59510.75;4969390;28;20109;-86
2022/06/02 02:40:06;;;;;;;7.50;2.58;;;;;;;-147.90;100.00;59510.75;4970279;28;20496;-87
2022/06/02 02:42:38;;;;;;;5.55;2.90;;;;;;;-147.90;100.00;59510.75;4971039;28;20113;-86
2022/06/02 02:45:15;;;;;;;6.95;2.53;;;;;;;-147.90;100.00;59510.75;4971052;28;20047;-86
2022/06/02 02:47:49;;;;;;;6.65;2.75;;;;;;;-147.90;100.00;59510.75;4969076;28;20054;-86
2022/06/02 02:50:25;;;;;;;6.85;2.97;;;;;;;-147.90;100.00;59510.75;4969947;28;20089;-86
2022/06/02 02:52:58;;;;;;;6.65;2.80;;;;;;;-147.90;100.00;59510.75;4971057;28;20046;-87
2022/06/02 02:55:29;;;;;;;4.90;2.80;;;;;;;-147.90;100.00;59510.75;4971199;28;20097;-86
2022/06/02 02:58:02;;;;;;;5.38;2.85;;;;;;;-147.90;100.00;59510.75;4968988;28;20101;-87
2022/06/02 03:00:34;;;;;;;7.40;3.00;;;;;;;-147.90;100.00;59510.75;4965848;28;20043;-87
2022/06/02 03:03:08;;;;;;;4.70;2.90;;;;;;;-147.90;100.00;59510.75;4969462;28;20053;-87
2022/06/02 03:05:48;;;;;;;4.13;2.40;;;;;;;-147.90;100.00;59510.75;4969722;28;20066;-87
2022/06/02 03:08:25;;;;;;;4.85;2.85;;;;;;;-147.90;100.00;59510.75;4969024;28;20043;-87
2022/06/02 03:10:59;;;;;;;7.03;3.63;;;;;;;-147.90;100.00;59510.75;4969138;28;20050;-87
2022/06/02 03:13:36;;;;;;;7.05;2.95;;;;;;;-147.90;100.00;59510.75;4970695;28;20129;-87
2022/06/02 03:16:08;;;;;;;5.25;2.70;;;;;;;-147.90;100.00;59510.75;4969492;28;20054;-87
2022/06/02 03:19:00;;;;;;;7.32;3.40;;;;;;;-147.90;100.00;59510.75;4969549;28;20544;-86
2022/06/02 03:21:34;;;;;;;8.85;3.53;;;;;;;-147.90;100.00;59510.75;4968368;28;20094;-87
2022/06/02 03:24:34;;;;;;;8.85;2.83;;;;;;;-147.90;100.00;59510.75;4969014;28;20043;-86
2022/06/02 03:27:15;;;;;;;7.97;3.08;;;;;;;-147.90;100.00;59510.75;4966764;28;20050;-86
2022/06/02 03:29:57;;;;;;;6.68;3.00;;;;;;;-147.90;100.00;59510.75;4970266;28;20093;-87
2022/06/02 03:32:38;;;;;;;5.07;2.90;;;;;;;-147.90;100.00;59510.75;4970190;28;20046;-87
2022/06/02 03:35:14;;;;;;;5.03;2.80;;;;;;;-147.90;100.00;59510.75;4969074;28;20051;-85
2022/06/02 03:37:53;;;;;;;5.15;2.65;;;;;;;-147.90;100.00;59510.75;4970401;28;20069;-86
2022/06/02 03:40:34;;;;;;;6.30;3.55;;;;;;;-147.90;100.00;59510.75;4969301;28;20056;-87
2022/06/02 03:43:12;;;;;;;7.85;3.88;;;;;;;-147.90;100.00;59510.75;4968791;28;20093;-87
2022/06/02 03:45:57;;;;;;;7.40;4.25;;;;;;;-147.90;100.00;59510.75;4969743;28;20402;-87
2022/06/02 03:48:55;;;;;;;7.40;3.88;;;;;;;-147.90;100.00;59510.75;4969712;28;20103;-87
2022/06/02 03:51:34;;;;;;;7.38;3.38;;;;;;;-147.90;100.00;59510.75;4942305;28;20062;-85
2022/06/02 03:54:37;;;;;;;8.73;3.78;;;;;;;-147.90;100.00;59510.75;4970736;28;20481;-87
2022/06/02 03:57:32;;;;;;;6.20;3.63;;;;;;;-147.90;100.00;59510.75;4924221;28;20051;-86
2022/06/02 04:00:14;;;;;;;6.03;3.75;;;;;;;-147.90;100.00;59510.75;4970077;28;20038;-87
2022/06/02 04:02:48;;;;;;;7.10;4.18;;;;;;;-147.90;100.00;59510.75;4969478;28;20043;-87
2022/06/02 04:05:25;;;;;;;8.55;4.53;;;;;;;-147.90;100.00;59510.75;4970337;28;20046;-87
2022/06/02 04:08:05;;;;;;;8.32;4.03;;;;;;;-147.90;100.00;59510.75;4969200;28;20102;-86
2022/06/02 04:10:38;;;;;;;7.47;3.83;;;;;;;-147.90;100.00;59510.75;4970009;28;20379;-87
2022/06/02 04:13:37;;;;;;;7.10;3.90;;;;;;;-147.90;100.00;59510.75;4969079;28;20046;-87
2022/06/02 04:16:21;;;;;;;11.18;4.47;;;;;;;-147.90;100.00;59510.75;4968675;28;20046;-86
2022/06/02 04:22:07;;;;;;;10.70;4.75;;;;;;;-147.90;100.00;59510.75;4971107;28;20047;-86
2022/06/02 04:24:41;;;;;;;9.60;4.53;;;;;;;-147.90;100.00;59510.75;4973934;28;20137;-87
2022/06/02 04:27:14;;;;;;;10.85;4.40;;;;;;;-147.90;100.00;59510.75;4972285;28;20049;-87
2022/06/02 04:29:57;;;;;;;13.02;5.55;;;;;;;-147.90;100.00;59510.75;4972574;28;20449;-87
2022/06/02 04:32:39;;;;;;;8.55;4.20;;;;;;;-147.90;100.00;59510.75;4972365;28;20109;-87
2022/06/02 04:35:15;;;;;;;8.00;4.30;;;;;;;-147.90;100.00;59510.75;4971837;28;20093;-88
2022/06/02 04:37:54;;;;;;;10.63;4.50;;;;;;;-147.90;100.00;59510.75;4972341;28;20118;-86
2022/06/02 04:40:34;;;;;;;6.72;3.35;;;;;;;-147.90;100.00;59510.75;4973433;28;20102;-87
2022/06/02 04:43:13;;;;;;;5.75;3.92;;;;;;;-147.90;100.00;59510.75;4972782;28;20059;-87
2022/06/02 04:45:55;;;;;;;7.22;3.90;;;;;;;-147.90;100.00;59510.75;4971711;28;20050;-87
2022/06/02 04:48:31;;;;;;;9.20;4.10;;;;;;;-147.90;100.00;59510.75;4972825;28;20148;-87
2022/06/02 04:51:10;;;;;;;10.60;4.03;;;;;;;-147.90;100.00;59510.75;4972007;28;20058;-88
2022/06/02 04:53:46;;;;;;;6.45;3.60;;;;;;;-147.90;100.00;59510.75;4973046;28;20050;-86
2022/06/02 04:56:23;;;;;;;10.15;4.10;;;;;;;-147.90;100.00;59510.75;4971881;28;20114;-87
2022/06/02 04:58:56;;;;;;;6.07;3.67;;;;;;;-147.90;100.00;59510.75;4972539;28;20093;-87
2022/06/02 05:01:34;;;;;;;6.88;3.92;;;;;;;-147.90;100.00;59510.75;4973223;28;20042;-87
2022/06/02 05:04:20;;;;;;;7.60;3.88;;;;;;;-147.90;100.00;59510.75;4972284;28;20054;-86
2022/06/02 05:06:53;;;;;;;7.13;3.90;;;;;;;-147.90;100.00;59510.75;4971817;28;20134;-87
2022/06/02 05:09:27;;;;;;;11.20;4.70;;;;;;;-147.90;100.00;59510.75;4972831;28;20094;-87
2022/06/02 05:12:09;;;;;;;10.70;5.25;;;;;;;-147.90;100.00;59510.75;4972709;28;20070;-88
2022/06/02 05:14:46;;;;;;;8.82;5.47;;;;;;;-147.90;100.00;59510.75;4972561;28;20051;-87
2022/06/02 05:17:48;;;;;;;10.05;6.30;;;;;;;-147.90;100.00;59510.75;4971607;28;20038;-86
2022/06/02 05:20:33;;;;;;;10.77;6.68;;;;;;;-147.90;100.00;59510.75;4971702;28;20105;-87
2022/06/02 05:23:27;;;;;;;10.45;4.38;;;;;;;-147.90;100.00;59510.75;4971877;28;20047;-87
2022/06/02 05:26:17;;;;;;;8.30;4.10;;;;;;;-147.90;100.00;59510.75;4970960;28;20051;-87
2022/06/02 05:29:20;;;;;;;7.40;3.92;;;;;;;-147.90;100.00;59510.75;4969862;28;20054;-87
2022/06/02 05:32:30;;;;;;;7.75;3.83;;;;;;;-147.90;100.00;59510.75;4971895;28;20438;-87
2022/06/02 05:35:28;;;;;;;4.90;3.33;;;;;;;-147.90;100.00;59510.75;4968919;28;20437;-87
2022/06/02 05:38:29;;;;;;;8.48;3.42;;;;;;;-147.90;100.00;59510.75;4971952;28;20577;-87
2022/06/02 05:41:03;;;;;;;8.02;3.63;;;;;;;-147.90;100.00;59510.75;4972177;28;20074;-87
2022/06/02 05:43:37;;;;;;;9.85;3.88;;;;;;;-147.90;100.00;59510.75;4970628;28;20417;-87
2022/06/02 05:46:21;;;;;;;8.00;3.67;;;;;;;-147.90;100.00;59510.75;4971027;28;20043;-87
2022/06/02 05:49:06;;;;;;;8.60;3.80;;;;;;;-147.90;100.00;59510.75;4966467;28;20231;-88
2022/06/02 05:51:41;;;;;;;5.47;3.38;;;;;;;-147.90;100.00;59510.75;4970903;28;20050;-88
2022/06/02 05:54:21;;;;;;;7.28;3.60;;;;;;;-147.90;100.00;59510.75;4971038;28;20453;-87
2022/06/02 05:57:01;;;;;;;5.82;2.72;;;;;;;-147.90;100.00;59510.75;4970669;28;20038;-86
2022/06/02 05:59:51;;;;;;;11.75;4.30;;;;;;;-147.90;100.00;59510.75;4971385;28;20051;-87
2022/06/02 06:02:39;;;;;;;4.32;2.47;;;;;;;-147.90;100.00;59510.75;4972046;28;20047;-87
2022/06/02 06:05:14;;;;;;;5.10;2.58;;;;;;;-147.90;100.00;59510.75;4968838;28;20171;-87
2022/06/02 06:07:49;;;;;;;;;;;;;;;-147.90;100.00;59510.75;4971514;28;20047;-86
2022/06/02 06:10:23;;;;;;;7.35;3.00;;;;;;;-147.90;100.00;59510.75;4971997;28;19926;-87
2022/06/02 06:13:04;;;;;;;5.22;3.08;;;;;;;-147.90;100.00;59510.75;4969809;28;20047;-87
2022/06/02 06:15:43;;;;;;;7.47;3.50;;;;;;;-147.90;100.00;59510.75;4971516;28;20394;-87
2022/06/02 06:18:22;;;;;;;16.90;4.93;;;;;;;-147.90;100.00;59510.75;4970265;28;20457;-87
2022/06/02 06:21:14;;;;;;;13.07;6.05;;;;;;;-147.90;100.00;59510.75;4971717;28;20093;-87
2022/06/02 06:24:16;;;;;;;23.95;8.32;;;;;;;-147.90;100.00;59510.75;4970623;28;20055;-87
2022/06/02 06:26:52;;;;;;;17.05;7.70;;;;;;;-147.90;100.00;59510.75;4970400;28;20493;-87
2022/06/02 06:29:34;;;;;;;21.05;9.32;;;;;;;-147.90;100.00;59510.75;4971335;28;20045;-88
2022/06/02 06:32:08;;;;;;;20.30;9.60;;;;;;;-147.90;100.00;59510.75;4966927;28;20043;-86
2022/06/02 06:34:45;;;;;;;21.20;11.60;;;;;;;-147.90;100.00;59510.75;4971391;28;20555;-93
2022/06/02 06:37:45;;;;;;;24.75;11.07;;;;;;;-147.90;100.00;59510.75;4969990;28;20457;-88
2022/06/02 06:40:34;;;;;;;25.88;9.43;;;;;;;-147.90;100.00;59510.75;4955480;28;20079;-87
2022/06/02 06:43:15;;;;;;;24.38;8.30;;;;;;;-147.90;100.00;59510.75;4970343;28;20094;-89
2022/06/02 06:45:49;;;;;;;22.08;7.72;;;;;;;-147.90;100.00;59510.75;4969286;28;20046;-91
2022/06/02 06:48:23;;;;;;;18.73;7.85;;;;;;;-147.90;100.00;59510.75;4970277;28;20051;-92
2022/06/02 06:50:57;;;;;;;26.65;7.78;;;;;;;-147.90;100.00;59510.75;4970966;28;20093;-89
2022/06/02 06:53:35;;;;;;;26.67;7.90;;;;;;;-147.90;100.00;59510.75;4971093;28;20089;-89
2022/06/02 06:56:12;;;;;;;24.00;7.43;;;;;;;-147.90;100.00;59510.75;4970343;28;20047;-88
2022/06/02 06:58:55;;;;;;;32.85;7.68;;;;;;;-147.90;100.00;59510.75;4971010;28;20043;-89
2022/06/02 07:01:29;;;;;;;33.00;7.93;;;;;;;-147.90;100.00;59510.75;4970507;28;20054;-89
2022/06/02 07:04:09;;;;;;;35.90;8.05;;;;;;;-147.90;100.00;59510.75;4968837;28;20101;-89
2022/06/02 07:06:47;;;;;;;32.40;7.25;;;;;;;-147.90;100.00;59510.75;4970180;28;20501;-90
2022/06/02 07:09:24;;;;;;;14.88;4.75;;;;;;;-147.90;100.00;59510.75;4969300;28;20039;-91
2022/06/02 07:14:50;;;;;;;10.45;4.03;;;;;;;-147.90;100.00;59510.75;4970566;28;20054;-90
2022/06/02 07:17:23;;;;;;;9.38;3.20;;;;;;;-147.90;100.00;59510.75;4969420;28;20097;-87
2022/06/02 07:20:00;;;;;;;8.50;3.47;;;;;;;-147.90;100.00;59510.75;4969679;28;20047;-87
2022/06/02 07:22:38;;;;;;;11.55;3.67;;;;;;;-147.90;100.00;59510.75;4970753;28;20055;-84
2022/06/02 07:25:13;;;;;;;10.10;3.88;;;;;;;-147.90;100.00;59510.75;4969472;28;20051;-87
2022/06/02 07:27:50;;;;;;;18.70;3.88;;;;;;;-147.90;100.00;59510.75;4970342;28;20050;-87
2022/06/02 07:30:34;;;;;;;16.15;4.30;;;;;;;-147.90;100.00;59510.75;4969035;28;20126;-92
2022/06/02 07:33:22;;;;;;;11.00;3.50;;;;;;;-147.90;100.00;59510.75;4968531;28;20472;-89
2022/06/02 07:36:02;;;;;;;11.57;2.47;;;;;;;-147.90;100.00;59510.75;4968995;28;20121;-90
2022/06/02 07:39:00;;;;;;;14.30;3.60;;;;;;;-147.90;100.00;59510.75;4970495;28;20066;-88
2022/06/02 07:41:44;;;;;;;10.60;3.45;;;;;;;-147.90;100.00;59510.75;4969897;28;20094;-89
2022/06/02 07:44:30;;;;;;;11.73;3.50;;;;;;;-147.90;100.00;59510.75;4970154;28;20050;-88
2022/06/02 07:47:18;;;;;;;9.75;2.90;;;;;;;-147.90;100.00;59510.75;4970016;28;20073;-87
2022/06/02 07:50:00;;;;;;;7.82;2.70;;;;;;;-147.90;100.00;59510.75;4970145;28;20062;-88
2022/06/02 07:52:36;;;;;;;11.70;3.30;;;;;;;-147.90;100.00;59510.75;4969889;28;20154;-88
2022/06/02 07:55:15;;;;;;;6.43;2.40;;;;;;;-147.90;100.00;59510.75;4968572;28;20125;-88
2022/06/02 07:57:51;;;;;;;8.95;3.03;;;;;;;-147.90;100.00;59510.75;4972281;28;20054;-87
2022/06/02 08:00:21;;;;;;;7.82;3.72;;;;;;;-147.90;100.00;59510.75;4972258;28;20070;-87
2022/06/02 08:03:08;;;;;;;7.38;2.80;;;;;;;-147.90;100.00;59510.75;4974106;28;20046;-88
2022/06/02 08:05:42;;;;;;;8.77;2.80;;;;;;;-147.90;100.00;59510.75;4950801;28;20089;-89
2022/06/02 08:08:17;;;;;;;7.75;2.22;;;;;;;-147.90;100.00;59510.75;4972599;28;20043;-87
2022/06/02 08:10:56;;;;;;;4.70;2.45;;;;;;;-147.90;100.00;59510.75;4972787;28;20472;-84
2022/06/02 08:13:33;;;;;;;6.63;2.58;;;;;;;-147.90;100.00;59510.75;4972474;28;20075;-86
2022/06/02 08:16:08;;;;;;;7.88;2.60;;;;;;;-147.90;100.00;59510.75;4973120;28;20379;-85
2022/06/02 08:18:51;;;;;;;10.35;2.90;;;;;;;-147.90;100.00;59510.75;4973765;28;20429;-86
2022/06/02 08:21:27;;;;;;;7.05;2.85;;;;;;;-147.90;100.00;59510.75;4972885;28;20106;-86
2022/06/02 08:24:25;;;;;;;7.50;2.67;;;;;;;-147.90;100.00;59510.75;4972266;28;20167;-85
2022/06/02 08:27:04;;;;;;;8.05;3.60;;;;;;;-147.90;100.00;59510.75;4973534;28;20117;-86
2022/06/02 08:29:43;;;;;;;6.38;2.95;;;;;;;-147.90;100.00;59510.75;4972293;28;20047;-88
2022/06/02 08:32:26;;;;;;;6.32;2.83;;;;;;;-147.90;100.00;59510.75;4973469;28;20462;-85
2022/06/02 08:35:04;;;;;;;7.38;3.28;;;;;;;-147.90;100.00;59510.75;4973112;28;20055;-86
2022/06/02 08:37:46;;;;;;;7.05;2.80;;;;;;;-147.90;100.00;59510.75;4972185;28;20049;-86
2022/06/02 08:40:58;;;;;;;5.65;2.17;;;;;;;-147.90;100.00;59510.75;4971708;28;20047;-85
2022/06/02 08:43:58;;;;;;;4.20;2.58;;;;;;;-147.90;100.00;59510.75;4894752;29;20523;-85
2022/06/02 08:46:47;;;;;;;8.30;2.90;;;;;;;-147.90;100.00;59510.75;4884087;29;20912;-86
2022/06/02 08:49:54;;;;;;;4.32;2.42;;;;;;;-147.90;100.00;59510.75;4958895;28;20039;-89
2022/06/02 08:52:51;;;;;;;7.53;2.40;;;;;;;-147.90;100.00;59510.75;4972070;28;20050;-87
2022/06/02 08:55:50;;;;;;;4.75;2.50;;;;;;;-147.90;100.00;59510.75;4973183;28;20042;-87
2022/06/02 08:58:58;;;;;;;9.73;2.78;;;;;;;-147.90;100.00;59510.75;4967586;28;20056;-86
2022/06/02 09:01:42;;;;;;;4.93;2.42;;;;;;;-147.90;100.00;59510.75;4972567;28;20113;-86
2022/06/02 09:04:53;;;;;;;13.80;3.58;;;;;;;-147.90;100.00;59510.75;4972147;28;20050;-86
2022/06/02 09:08:04;;;;;;;8.82;3.00;;;;;;;-147.90;100.00;59510.75;4971636;28;20047;-88
2022/06/02 09:10:56;;;;;;;8.07;2.63;;;;;;;-147.90;100.00;59510.75;4930078;29;20079;-87
2022/06/02 09:13:59;;;;;;;3.92;2.03;;;;;;;-147.90;100.00;59510.75;4969828;28;20106;-88
2022/06/02 09:16:35;;;;;;;9.85;2.05;;;;;;;-147.90;100.00;59510.75;4952392;28;20133;-87
2022/06/02 09:19:43;;;;;;;4.63;2.20;;;;;;;-147.90;100.00;59510.75;4972749;28;20081;-89
2022/06/02 09:22:34;;;;;;;5.70;2.05;;;;;;;-147.90;100.00;59510.75;4952912;28;20553;-88
2022/06/02 09:25:15;;;;;;;4.95;1.85;;;;;;;-147.90;100.00;59510.75;4972957;28;20047;-91
2022/06/02 09:28:23;;;;;;;5.50;2.40;;;;;;;-147.90;100.00;59510.75;4973318;28;20564;-88
2022/06/02 09:31:06;;;;;;;10.80;2.50;;;;;;;-147.90;100.00;59510.75;4981629;28;20042;-87
2022/06/02 09:34:08;;;;;;;5.70;2.03;;;;;;;-147.90;100.00;59510.75;4979270;28;20082;-88
2022/06/02 09:36:57;;;;;;;7.88;2.08;;;;;;;-147.90;100.00;59510.75;4967604;28;20512;-90
2022/06/02 09:39:55;;;;;;;5.25;1.63;;;;;;;-147.90;100.00;59510.75;4970920;28;20114;-84
2022/06/02 09:42:40;;;;;;;5.50;1.95;;;;;;;-147.90;100.00;59510.75;4972277;28;20133;-88
2022/06/02 09:45:28;;;;;;;6.00;1.63;;;;;;;-147.90;100.00;59510.75;4970743;28;20046;-88
2022/06/02 09:48:31;;;;;;;4.55;1.42;;;;;;;-147.90;100.00;59510.75;4971178;28;20405;-90
2022/06/02 09:51:12;;;;;;;8.82;1.85;;;;;;;-147.90;100.00;59510.75;4970957;28;20051;-89
2022/06/02 09:54:03;;;;;;;5.82;1.85;;;;;;;-147.90;100.00;59510.75;4970541;28;20050;-88
2022/06/02 09:56:51;;;;;;;6.35;1.77;;;;;;;-147.90;100.00;59510.75;4971115;28;20105;-88
2022/06/02 09:59:25;;;;;;;7.07;1.30;;;;;;;-147.90;100.00;59510.75;4971482;28;20109;-87
2022/06/02 10:02:11;;;;;;;5.85;1.95;;;;;;;-147.90;100.00;59510.75;4972207;28;20134;-88
2022/06/02 10:05:18;;;;;;;4.03;1.58;;;;;;;-147.90;100.00;59510.75;4971909;28;20046;-86
2022/06/02 10:08:16;;;;;;;5.25;1.60;;;;;;;-147.90;100.00;59510.75;4961996;28;20481;-88
2022/06/02 10:10:58;;;;;;;9.07;1.65;;;;;;;-147.90;100.00;59510.75;4970049;28;20105;-90
2022/06/02 10:14:03;;;;;;;6.13;1.10;;;;;;;-147.90;100.00;59510.75;4971449;28;20390;-87
2022/06/02 10:17:17;;;;;;;4.07;1.33;;;;;;;-147.90;100.00;59510.75;4970410;28;20121;-87
2022/06/02 10:20:18;;;;;;;7.90;2.30;;;;;;;-147.90;100.00;59510.75;4958126;28;20050;-90
2022/06/02 10:23:02;;;;;;;7.00;1.73;;;;;;;-147.90;100.00;59510.75;4970023;28;20074;-89
2022/06/02 10:25:48;;;;;;;4.33;1.63;;;;;;;-147.90;100.00;59510.75;4967729;28;20114;-87
2022/06/02 10:28:33;;;;;;;4.05;1.42;;;;;;;-147.90;100.00;59510.75;4969530;28;20055;-88
2022/06/02 10:31:29;;;;;;;5.82;2.08;;;;;;;-147.90;100.00;59510.75;4969601;28;20409;-88
2022/06/02 10:34:43;;;;;;;5.30;1.38;;;;;;;-147.90;100.00;59510.75;4970781;28;20050;-90
2022/06/02 10:37:46;;;;;;;6.32;1.63;;;;;;;-147.90;100.00;59510.75;4970726;28;20453;-91
2022/06/02 10:40:19;;;;;;;7.68;1.85;;;;;;;-147.90;100.00;59510.75;4967869;28;20443;-89
2022/06/02 10:43:25;;;;;;;6.57;1.40;;;;;;;-147.90;100.00;59510.75;4971141;28;20050;-90
2022/06/02 10:46:50;;;;;;;4.60;1.90;;;;;;;-147.90;100.00;59510.75;4969870;28;20501;-88
2022/06/02 10:49:43;;;;;;;6.97;2.10;;;;;;;-147.90;100.00;59510.75;4970992;28;20094;-90
2022/06/02 10:52:43;;;;;;;5.10;2.13;;;;;;;-147.90;100.00;59510.75;4969846;28;20050;-93
2022/06/02 10:55:52;;;;;;;6.35;1.85;;;;;;;-147.90;100.00;59510.75;4969710;28;20047;-89
2022/06/02 10:58:43;;;;;;;3.85;1.50;;;;;;;-147.90;100.00;59510.75;4969166;28;20408;-87
2022/06/02 11:01:47;;;;;;;2.95;1.77;;;;;;;-147.90;100.00;59510.75;4969923;28;20093;-91
2022/06/02 11:04:53;;;;;;;5.13;1.60;;;;;;;-147.90;100.00;59510.75;4967136;28;20047;-89
2022/06/02 11:08:00;;;;;;;3.70;1.60;;;;;;;-147.90;100.00;59510.75;4940467;28;20054;-90
2022/06/02 11:14:02;;;;;;;5.57;1.50;;;;;;;-147.90;100.00;59510.75;4970238;28;20062;-90
2022/06/02 11:17:10;;;;;;;5.80;1.70;;;;;;;-147.90;100.00;59510.75;4957815;28;20061;-90
2022/06/02 11:20:13;;;;;;;6.75;2.42;;;;;;;-147.90;100.00;59510.75;4969063;28;20051;-89
2022/06/02 11:23:12;;;;;;;4.85;1.60;;;;;;;-147.90;100.00;59510.75;4967541;28;20113;-93
2022/06/02 11:26:16;;;;;;;5.97;1.55;;;;;;;-147.90;100.00;59510.75;4968922;28;20047;-87
2022/06/02 11:29:12;;;;;;;4.05;1.27;;;;;;;-147.90;100.00;59510.75;4969488;28;20051;-89
2022/06/02 11:32:08;;;;;;;2.35;0.90;;;;;;;-147.90;100.00;59510.75;4966382;28;20046;-88
2022/06/02 11:34:59;;;;;;;6.32;1.30;;;;;;;-147.90;100.00;59510.75;4969885;28;20047;-88
2022/06/02 11:37:51;;;;;;;4.72;1.10;;;;;;;-147.90;100.00;59510.75;4970894;28;20418;-91
2022/06/02 11:40:45;;;;;;;3.65;1.60;;;;;;;-147.90;100.00;59510.75;4969850;28;20075;-89
2022/06/02 11:43:15;;;;;;;3.20;0.82;;;;;;;-147.90;100.00;59510.75;4968841;28;20047;-88
2022/06/02 11:46:17;;;;;;;5.32;1.48;;;;;;;-147.90;100.00;59510.75;4969179;28;20094;-91
2022/06/02 11:49:22;;;;;;;3.85;1.30;;;;;;;-147.90;100.00;59510.75;4944427;28;20437;-89
2022/06/02 11:52:10;;;;;;;4.30;1.38;;;;;;;-147.90;100.00;59510.75;4960396;28;20051;-88
2022/06/02 11:54:54;;;;;;;4.75;1.30;;;;;;;-147.90;100.00;59510.75;4970237;28;20062;-88
2022/06/02 11:57:45;;;;;;;3.47;1.48;;;;;;;-147.90;100.00;59510.75;4969867;28;20055;-91
2022/06/02 12:00:34;;;;;;;5.45;1.40;;;;;;;-147.90;100.00;59510.75;4968627;28;20047;-87
2022/06/02 12:03:16;;;;;;;14.02;2.95;;;;;;;-147.90;100.00;59510.75;4969715;28;20133;-90
2022/06/02 12:06:10;;;;;;;3.65;1.42;;;;;;;-147.90;100.00;59510.75;4969128;28;20051;-87
2022/06/02 12:08:58;;;;;;;4.10;1.70;;;;;;;-147.90;100.00;59510.75;4970004;28;20058;-89
2022/06/02 12:11:48;;;;;;;4.20;2.08;;;;;;;-147.90;100.00;59510.75;4970728;28;20101;-90
2022/06/02 12:14:31;;;;;;;5.70;1.10;;;;;;;-147.90;100.00;59510.75;4970386;28;20051;-86
2022/06/02 12:17:32;;;;;;;4.50;1.27;;;;;;;-147.90;100.00;59510.75;4968564;28;20043;-86
2022/06/02 12:20:19;;;;;;;2.88;1.10;;;;;;;-147.90;100.00;59510.75;4968662;28;20047;-82
2022/06/02 12:23:09;;;;;;;5.13;1.65;;;;;;;-147.90;100.00;59510.75;4966511;28;20126;-90
2022/06/02 12:25:48;;;;;;;4.50;1.48;;;;;;;-147.90;100.00;59510.75;4969169;28;20494;-89
2022/06/02 12:28:42;;;;;;;3.00;1.38;;;;;;;-147.90;100.00;59510.75;4968824;28;20051;-84
2022/06/02 12:31:52;;;;;;;4.57;1.73;;;;;;;-147.90;100.00;59510.75;4970037;28;20057;-86
2022/06/02 12:34:51;;;;;;;2.95;1.38;;;;;;;-147.90;100.00;59510.75;4968933;28;20051;-92
2022/06/02 12:37:40;;;;;;;3.65;1.60;;;;;;;-147.90;100.00;59510.75;4968268;28;20093;-86
2022/06/02 12:40:28;;;;;;;7.22;1.75;;;;;;;-147.90;100.00;59510.75;4969279;28;20114;-91